Time;durP1;ratioP1;P1;durP2;ratioP2;P2;SDS_P1;SDS_P2;PMS_P1;PMS_P2;Temp;Humidity;BMP_temperature;BMP_pressure;BME280_temperature;BME280_humidity;BME280_pressure;Samples;Min_cycle;Max_cycle;Signal;HPM_P1;HPM_P2
2022/10/30 00:00:13;;;;;;;1999.90;999.90;;;17.20;99.90;;;;;;5093487;28;20173;-67
2022/10/30 00:02:39;;;;;;;1999.90;999.90;;;17.30;99.90;;;;;;5092839;28;20186;-67
2022/10/30 00:05:05;;;;;;;1999.90;999.90;;;17.30;99.90;;;;;;5092869;28;20635;-67
2022/10/30 00:07:32;;;;;;;1999.90;999.90;;;17.30;99.90;;;;;;5092711;28;20174;-67
2022/10/30 00:09:57;;;;;;;1999.90;999.90;;;17.40;99.90;;;;;;5093155;28;20404;-67
2022/10/30 00:12:23;;;;;;;1999.90;999.90;;;17.40;99.90;;;;;;5093102;28;20986;-67
2022/10/30 00:14:48;;;;;;;1999.90;999.90;;;17.50;99.90;;;;;;5093084;28;20162;-67
2022/10/30 00:17:14;;;;;;;1999.90;999.90;;;17.40;99.90;;;;;;5093088;28;20245;-67
2022/10/30 00:19:40;;;;;;;1999.90;999.90;;;17.40;99.90;;;;;;5094284;28;20174;-66
2022/10/30 00:22:05;;;;;;;1999.90;999.90;;;17.40;99.90;;;;;;5093941;28;20284;-67
2022/10/30 00:24:31;;;;;;;1999.90;999.90;;;17.40;99.90;;;;;;5096599;28;20172;-67
2022/10/30 00:26:56;;;;;;;1999.90;999.90;;;17.30;99.90;;;;;;5095612;28;20253;-67
2022/10/30 00:29:23;;;;;;;1999.90;999.90;;;17.30;99.90;;;;;;5096467;28;20543;-67
2022/10/30 00:31:49;;;;;;;1999.90;999.90;;;17.30;99.90;;;;;;5095181;28;20248;-66
2022/10/30 00:34:15;;;;;;;1999.90;999.90;;;17.30;99.90;;;;;;5095290;28;20405;-67
2022/10/30 00:36:41;;;;;;;1999.90;999.90;;;17.30;99.90;;;;;;5095095;28;20393;-67
2022/10/30 00:39:06;;;;;;;1999.90;999.90;;;17.30;99.90;;;;;;5095172;28;20169;-67
2022/10/30 00:41:32;;;;;;;1999.90;999.90;;;17.40;99.90;;;;;;5094882;28;20580;-67
2022/10/30 00:43:58;;;;;;;1999.90;999.90;;;17.30;99.90;;;;;;5095247;28;20187;-67
2022/10/30 00:46:38;;;;;;;1999.90;999.90;;;17.20;99.90;;;;;;5095002;28;20177;-67
2022/10/30 00:49:12;;;;;;;1999.90;999.90;;;17.20;99.90;;;;;;5094939;28;20177;-67
2022/10/30 00:51:42;;;;;;;1999.90;999.90;;;17.20;99.90;;;;;;5094828;28;20866;-67
2022/10/30 00:54:09;;;;;;;1999.90;999.90;;;17.10;99.90;;;;;;5094866;28;20404;-67
2022/10/30 00:56:35;;;;;;;1999.90;999.90;;;17.10;99.90;;;;;;5094961;28;20459;-67
2022/10/30 00:59:05;;;;;;;1999.90;999.90;;;17.00;99.90;;;;;;5094626;28;20894;-67
2022/10/30 01:01:35;;;;;;;1999.90;999.90;;;17.00;99.90;;;;;;5094727;28;20523;-67
2022/10/30 01:04:03;;;;;;;1999.90;999.90;;;16.90;99.90;;;;;;5094661;28;20422;-67
2022/10/30 01:06:32;;;;;;;1999.90;999.90;;;17.00;99.90;;;;;;5094519;28;20773;-67
2022/10/30 01:08:59;;;;;;;1999.90;999.90;;;17.00;99.90;;;;;;5094380;28;20491;-67
2022/10/30 01:11:24;;;;;;;1999.90;999.90;;;17.00;99.90;;;;;;5094421;28;20435;-67
2022/10/30 01:13:54;;;;;;;1999.90;999.90;;;17.10;99.90;;;;;;5094485;28;20980;-67
2022/10/30 01:16:32;;;;;;;1999.90;999.90;;;17.10;99.90;;;;;;5094317;28;20263;-67
2022/10/30 01:19:09;;;;;;;1999.90;999.90;;;17.00;99.90;;;;;;5094193;28;20434;-67
2022/10/30 01:21:46;;;;;;;1999.90;999.90;;;17.00;99.90;;;;;;5097121;28;20487;-67
2022/10/30 01:24:17;;;;;;;1999.90;999.90;;;17.00;99.90;;;;;;5098149;28;20978;-67
2022/10/30 01:26:46;;;;;;;1999.90;999.90;;;17.00;99.90;;;;;;5096297;28;20936;-66
2022/10/30 01:29:41;;;;;;;1999.90;999.90;;;16.90;99.90;;;;;;5095410;28;20449;-67
2022/10/30 01:32:31;;;;;;;1999.90;999.90;;;16.90;99.90;;;;;;5095522;28;20448;-67
2022/10/30 01:35:26;;;;;;;1999.90;999.90;;;16.80;99.90;;;;;;5095365;28;20778;-67
2022/10/30 01:38:18;;;;;;;1999.90;999.90;;;16.70;99.90;;;;;;5095016;28;20444;-67
2022/10/30 01:40:44;;;;;;;1999.90;999.90;;;16.60;99.90;;;;;;5064195;28;20421;-67
2022/10/30 01:43:10;;;;;;;1999.90;999.90;;;16.60;99.90;;;;;;5095138;28;20797;-67
2022/10/30 01:46:00;;;;;;;1999.90;999.90;;;16.50;99.90;;;;;;5096771;28;20438;-67
2022/10/30 01:48:56;;;;;;;1999.90;999.90;;;16.50;99.90;;;;;;5097487;28;20176;-67
2022/10/30 01:51:31;;;;;;;1999.90;999.90;;;16.50;99.90;;;;;;5097106;28;20484;-67
2022/10/30 01:54:16;;;;;;;1999.90;999.90;;;16.40;99.90;;;;;;5097209;28;20509;-68
2022/10/30 01:57:20;;;;;;;1999.90;999.90;;;16.40;99.90;;;;;;5097101;28;20520;-68
2022/10/30 01:59:49;;;;;;;1999.90;999.90;;;16.30;99.90;;;;;;5096951;28;20430;-68
2022/10/30 02:02:15;;;;;;;1999.90;999.90;;;16.20;99.90;;;;;;5097140;28;20793;-68
2022/10/30 02:04:41;;;;;;;1999.90;999.90;;;16.10;99.90;;;;;;5097418;28;20803;-67
2022/10/30 02:07:07;;;;;;;1999.90;999.90;;;16.00;99.90;;;;;;5097546;28;20985;-67
2022/10/30 02:09:33;;;;;;;1999.90;999.90;;;15.90;99.90;;;;;;5097402;28;20404;-67
2022/10/30 02:12:00;;;;;;;1999.90;999.90;;;15.90;99.90;;;;;;5096967;28;20454;-68
2022/10/30 02:14:35;;;;;;;1999.90;999.90;;;15.90;99.90;;;;;;5096578;28;20422;-67
2022/10/30 02:17:03;;;;;;;1999.90;999.90;;;15.80;99.90;;;;;;5095976;28;20408;-67
2022/10/30 02:19:28;;;;;;;1999.90;999.90;;;15.70;99.90;;;;;;5095963;28;20401;-67
2022/10/30 02:21:54;;;;;;;1999.90;999.90;;;15.70;99.90;;;;;;5096558;28;20926;-68
2022/10/30 02:24:20;;;;;;;1999.90;999.90;;;15.60;99.90;;;;;;5096353;28;20170;-67
2022/10/30 02:26:45;;;;;;;1999.90;999.90;;;15.50;99.90;;;;;;5097092;28;20172;-67
2022/10/30 02:29:11;;;;;;;1999.90;999.90;;;15.40;99.90;;;;;;5096778;28;20180;-67
2022/10/30 02:31:37;;;;;;;1999.90;999.90;;;15.40;99.90;;;;;;5096060;28;20194;-67
2022/10/30 02:34:03;;;;;;;1999.90;999.90;;;15.40;99.90;;;;;;5096393;28;20192;-67
2022/10/30 02:36:28;;;;;;;1999.90;999.90;;;15.40;99.90;;;;;;5096034;28;20158;-68
2022/10/30 02:38:54;;;;;;;1999.90;999.90;;;15.30;99.90;;;;;;5096216;28;20169;-67
2022/10/30 02:41:23;;;;;;;1999.90;999.90;;;15.30;99.90;;;;;;5095911;28;20177;-67
2022/10/30 02:43:51;;;;;;;1999.90;999.90;;;15.30;99.90;;;;;;5096394;28;20203;-67
2022/10/30 02:46:16;;;;;;;1999.90;999.90;;;15.20;99.90;;;;;;5094911;28;20403;-67
2022/10/30 02:48:42;;;;;;;1999.90;999.90;;;15.20;99.90;;;;;;5095238;28;20427;-67
2022/10/30 02:51:08;;;;;;;1999.90;999.90;;;15.20;99.90;;;;;;5095786;28;20199;-68
2022/10/30 02:53:34;;;;;;;1999.90;999.90;;;15.10;99.90;;;;;;5094740;28;20197;-67
2022/10/30 02:56:07;;;;;;;1999.90;999.90;;;15.10;99.90;;;;;;5095339;28;20226;-68
2022/10/30 02:58:33;;;;;;;1999.90;999.90;;;15.00;99.90;;;;;;5095511;28;20412;-68
2022/10/30 03:01:28;;;;;;;1999.90;999.90;;;15.00;99.90;;;;;;5095266;28;20427;-67
2022/10/30 03:03:54;;;;;;;1999.90;999.90;;;15.00;99.90;;;;;;5078013;28;20422;-67
2022/10/30 03:06:20;;;;;;;1999.90;999.90;;;15.00;99.90;;;;;;5095135;28;20408;-68
2022/10/30 03:08:45;;;;;;;1999.90;999.90;;;15.00;99.90;;;;;;5095176;28;20571;-68
2022/10/30 03:11:14;;;;;;;1999.90;999.90;;;15.00;99.90;;;;;;5094550;28;20219;-67
2022/10/30 03:13:40;;;;;;;1999.90;999.90;;;14.90;99.90;;;;;;5095217;28;20174;-68
2022/10/30 03:16:09;;;;;;;1999.90;999.90;;;14.90;99.90;;;;;;5094955;28;20921;-68
2022/10/30 03:18:34;;;;;;;1999.90;999.90;;;14.90;99.90;;;;;;5095181;28;20398;-67
2022/10/30 03:21:02;;;;;;;1999.90;999.90;;;14.90;99.90;;;;;;5095824;28;20469;-68
2022/10/30 03:23:28;;;;;;;1999.90;999.90;;;14.80;99.90;;;;;;5094580;28;20240;-67
2022/10/30 03:25:55;;;;;;;1999.90;999.90;;;14.80;99.90;;;;;;5094310;28;20501;-68
2022/10/30 03:28:22;;;;;;;1999.90;999.90;;;14.80;99.90;;;;;;5094515;28;20251;-67
2022/10/30 03:30:48;;;;;;;1999.90;999.90;;;14.70;99.90;;;;;;5094774;28;20438;-67
2022/10/30 03:33:14;;;;;;;1999.90;999.90;;;14.60;99.90;;;;;;5095033;28;20426;-67
2022/10/30 03:35:39;;;;;;;1999.90;999.90;;;14.50;99.90;;;;;;5094828;28;20950;-68
2022/10/30 03:38:05;;;;;;;1999.90;999.90;;;14.60;99.90;;;;;;5094351;28;20174;-67
2022/10/30 03:40:30;;;;;;;1999.90;999.90;;;14.50;99.90;;;;;;5094806;28;20177;-68
2022/10/30 03:42:56;;;;;;;1999.90;999.90;;;14.50;99.90;;;;;;5094575;28;20627;-68
2022/10/30 03:45:21;;;;;;;1999.90;999.90;;;14.50;99.90;;;;;;5095308;28;20176;-67
2022/10/30 03:47:47;;;;;;;1999.90;999.90;;;14.40;99.90;;;;;;5095081;28;20229;-68
2022/10/30 03:50:13;;;;;;;1999.90;999.90;;;14.30;99.90;;;;;;5095021;28;20246;-67
2022/10/30 03:52:38;;;;;;;1999.90;999.90;;;14.40;99.90;;;;;;5094187;28;20199;-68
2022/10/30 03:55:04;;;;;;;1999.90;999.90;;;14.40;99.90;;;;;;5094533;28;20164;-67
2022/10/30 03:57:30;;;;;;;1999.90;999.90;;;14.40;99.90;;;;;;5097411;28;20253;-67
2022/10/30 03:59:55;;;;;;;1999.90;999.90;;;14.50;99.90;;;;;;5098256;28;20439;-67
2022/10/30 04:02:21;;;;;;;1999.90;999.90;;;14.50;99.90;;;;;;5098417;28;20202;-69
2022/10/30 04:04:46;;;;;;;1999.90;999.90;;;14.50;99.90;;;;;;5098623;28;20716;-70
2022/10/30 04:07:12;;;;;;;1999.90;999.90;;;14.40;99.90;;;;;;5098375;28;20166;-69
2022/10/30 04:09:38;;;;;;;1999.90;999.90;;;14.40;99.90;;;;;;5098507;28;20208;-68
2022/10/30 04:12:04;;;;;;;1999.90;999.90;;;14.40;99.90;;;;;;5098904;28;20594;-67
2022/10/30 04:14:29;;;;;;;1999.90;999.90;;;14.40;99.90;;;;;;5098252;28;20506;-68
2022/10/30 04:16:55;;;;;;;1999.90;999.90;;;14.40;99.90;;;;;;5098198;28;20171;-68
2022/10/30 04:19:20;;;;;;;1999.90;999.90;;;14.30;99.90;;;;;;5098479;28;20175;-68
2022/10/30 04:21:46;;;;;;;1999.90;999.90;;;14.30;99.90;;;;;;5098540;28;20201;-68
2022/10/30 04:24:15;;;;;;;1999.90;999.90;;;14.20;99.90;;;;;;5097931;28;20178;-67
2022/10/30 04:26:40;;;;;;;1999.90;999.90;;;14.20;99.90;;;;;;5098038;28;20398;-67
2022/10/30 04:29:06;;;;;;;1999.90;999.90;;;14.20;99.90;;;;;;5097680;28;20921;-67
2022/10/30 04:31:31;;;;;;;1999.90;999.90;;;14.20;99.90;;;;;;5095192;28;20196;-67
2022/10/30 04:33:57;;;;;;;1999.90;999.90;;;14.10;99.90;;;;;;5095341;28;20175;-66
2022/10/30 04:36:29;;;;;;;1999.90;999.90;;;14.10;99.90;;;;;;5095159;28;20622;-67
2022/10/30 04:38:54;;;;;;;1999.90;999.90;;;14.10;99.90;;;;;;5094991;28;20174;-67
2022/10/30 04:41:20;;;;;;;1999.90;999.90;;;14.10;99.90;;;;;;5095026;28;20503;-67
2022/10/30 04:43:48;;;;;;;1999.90;999.90;;;14.10;99.90;;;;;;5095153;28;20174;-66
2022/10/30 04:46:13;;;;;;;1999.90;999.90;;;14.10;99.90;;;;;;5095052;28;20178;-67
2022/10/30 04:48:39;;;;;;;1999.90;999.90;;;14.10;99.90;;;;;;5094870;28;20403;-67
2022/10/30 04:51:06;;;;;;;1999.90;999.90;;;14.10;99.90;;;;;;5094877;28;20175;-67
2022/10/30 04:53:31;;;;;;;1999.90;999.90;;;14.10;99.90;;;;;;5095489;28;20969;-68
2022/10/30 04:55:57;;;;;;;1999.90;999.90;;;14.00;99.90;;;;;;5097343;28;20481;-67
2022/10/30 04:58:22;;;;;;;1999.90;999.90;;;14.00;99.90;;;;;;5097803;28;20219;-67
2022/10/30 05:00:48;;;;;;;1999.90;999.90;;;14.00;99.90;;;;;;5098140;28;20659;-67
2022/10/30 05:03:20;;;;;;;1999.90;999.90;;;14.00;99.90;;;;;;5098386;28;20195;-67
2022/10/30 05:05:54;;;;;;;1999.90;999.90;;;14.00;99.90;;;;;;5098262;28;20222;-67
2022/10/30 05:08:19;;;;;;;1999.90;999.90;;;14.00;99.90;;;;;;5097232;28;20403;-67
2022/10/30 05:10:45;;;;;;;1999.90;999.90;;;13.90;99.90;;;;;;5097873;28;20397;-67
2022/10/30 05:13:11;;;;;;;1999.90;999.90;;;13.90;99.90;;;;;;5098381;28;20203;-66
2022/10/30 05:15:37;;;;;;;1999.90;999.90;;;13.80;99.90;;;;;;5097941;28;20167;-67
2022/10/30 05:18:02;;;;;;;1999.90;999.90;;;13.70;99.90;;;;;;5098392;28;20409;-67
2022/10/30 05:20:28;;;;;;;1999.90;999.90;;;13.70;99.90;;;;;;5098009;28;20168;-67
2022/10/30 05:22:58;;;;;;;1999.90;999.90;;;13.70;99.90;;;;;;5098131;28;20196;-67
2022/10/30 05:25:24;;;;;;;1999.90;999.90;;;13.70;99.90;;;;;;5098221;28;20201;-67
2022/10/30 05:27:50;;;;;;;1999.90;999.90;;;13.60;99.90;;;;;;5097909;28;20423;-67
2022/10/30 05:30:15;;;;;;;1999.90;999.90;;;13.60;99.90;;;;;;5097979;28;20407;-69
2022/10/30 05:32:41;;;;;;;1999.90;999.90;;;13.60;99.90;;;;;;5097229;28;20662;-69
2022/10/30 05:35:07;;;;;;;1999.90;999.90;;;13.60;99.90;;;;;;5097498;28;20166;-68
2022/10/30 05:37:33;;;;;;;1999.90;999.90;;;13.60;99.90;;;;;;5097569;28;20246;-69
2022/10/30 05:39:58;;;;;;;1999.90;999.90;;;13.60;99.90;;;;;;5097338;28;20462;-67
2022/10/30 05:42:24;;;;;;;1999.90;999.90;;;13.60;99.90;;;;;;5097412;28;20215;-67
2022/10/30 05:44:49;;;;;;;1999.90;999.90;;;13.50;99.90;;;;;;5097869;28;20171;-67
2022/10/30 05:47:15;;;;;;;1999.90;999.90;;;13.50;99.90;;;;;;5096977;28;20219;-67
2022/10/30 05:49:41;;;;;;;1999.90;999.90;;;13.40;99.90;;;;;;5097428;28;20170;-67
2022/10/30 05:52:06;;;;;;;1999.90;999.90;;;13.40;99.90;;;;;;5096870;28;20213;-67
2022/10/30 05:54:32;;;;;;;1999.90;999.90;;;13.30;99.90;;;;;;5097471;28;20189;-67
2022/10/30 05:56:57;;;;;;;1999.90;999.90;;;13.30;99.90;;;;;;5097059;28;20221;-67
2022/10/30 05:59:23;;;;;;;1999.90;999.90;;;13.30;99.90;;;;;;5097178;28;20647;-67
2022/10/30 06:01:49;;;;;;;1999.90;999.90;;;13.20;99.90;;;;;;5097346;28;20675;-67
2022/10/30 06:04:14;;;;;;;1999.90;999.90;;;13.20;99.90;;;;;;5096884;28;20645;-67
2022/10/30 06:06:40;;;;;;;1999.90;999.90;;;13.20;99.90;;;;;;5096610;28;20168;-67
2022/10/30 06:09:05;;;;;;;1999.90;999.90;;;13.20;99.90;;;;;;5096847;28;20176;-67
2022/10/30 06:11:31;;;;;;;1999.90;999.90;;;13.20;99.90;;;;;;5096418;28;20215;-67
2022/10/30 06:13:56;;;;;;;1999.90;999.90;;;13.30;99.90;;;;;;5096901;28;20175;-67
2022/10/30 06:16:22;;;;;;;1999.90;999.90;;;13.20;99.90;;;;;;5093512;28;20256;-67
2022/10/30 06:18:48;;;;;;;1999.90;999.90;;;13.20;99.90;;;;;;5093087;28;20219;-67
2022/10/30 06:21:13;;;;;;;1999.90;999.90;;;13.20;99.90;;;;;;5093186;28;20230;-67
2022/10/30 06:23:39;;;;;;;1999.90;999.90;;;13.20;99.90;;;;;;5093245;28;20178;-67
2022/10/30 06:26:04;;;;;;;1999.90;999.90;;;13.20;99.90;;;;;;5093071;28;20674;-66
2022/10/30 06:28:30;;;;;;;1999.90;999.90;;;13.20;99.90;;;;;;5092980;28;20251;-67
2022/10/30 06:30:55;;;;;;;1999.90;999.90;;;13.20;99.90;;;;;;5093070;28;20172;-67
2022/10/30 06:33:21;;;;;;;1999.90;999.90;;;13.20;99.90;;;;;;5092935;28;20192;-67
2022/10/30 06:35:48;;;;;;;1999.90;999.90;;;13.10;99.90;;;;;;5092948;28;20258;-67
2022/10/30 06:38:14;;;;;;;1999.90;999.90;;;13.10;99.90;;;;;;5094327;28;20656;-67
2022/10/30 06:40:40;;;;;;;1999.90;999.90;;;13.10;99.90;;;;;;5098423;28;20451;-67
2022/10/30 06:43:06;;;;;;;1999.90;999.90;;;13.10;99.90;;;;;;5097647;28;20537;-67
2022/10/30 06:45:31;;;;;;;1999.90;999.90;;;13.10;99.90;;;;;;5097556;28;20602;-67
2022/10/30 06:47:58;;;;;;;1999.90;999.90;;;13.10;99.90;;;;;;5097888;28;20174;-67
2022/10/30 06:50:24;;;;;;;1999.90;999.90;;;13.10;99.90;;;;;;5097651;28;20184;-67
2022/10/30 06:52:50;;;;;;;1999.90;999.90;;;13.10;99.90;;;;;;5097272;28;20472;-67
2022/10/30 06:55:16;;;;;;;1999.90;999.90;;;13.10;99.90;;;;;;5096941;28;20173;-66
2022/10/30 06:57:42;;;;;;;1999.90;999.90;;;13.10;99.90;;;;;;5097283;28;20166;-67
2022/10/30 07:00:08;;;;;;;1999.90;999.90;;;13.20;99.90;;;;;;5097734;28;20489;-67
2022/10/30 07:02:34;;;;;;;1999.90;999.90;;;13.20;99.90;;;;;;5097974;28;20215;-67
2022/10/30 07:05:00;;;;;;;1999.90;999.90;;;13.30;99.90;;;;;;5097648;28;20489;-67
2022/10/30 07:07:25;;;;;;;1999.90;999.90;;;13.40;99.90;;;;;;5097767;28;20925;-67
2022/10/30 07:09:51;;;;;;;1999.90;999.90;;;13.50;99.90;;;;;;5097344;28;20200;-67
2022/10/30 07:12:16;;;;;;;1999.90;999.90;;;13.60;99.90;;;;;;5096938;28;20296;-67
2022/10/30 07:14:42;;;;;;;1999.90;999.90;;;13.70;99.90;;;;;;5096776;28;20526;-67
2022/10/30 07:17:08;;;;;;;1999.90;999.90;;;13.80;99.90;;;;;;5094987;28;20172;-67
2022/10/30 07:19:33;;;;;;;1999.90;999.90;;;13.80;99.90;;;;;;5095798;28;20181;-67
2022/10/30 07:22:00;;;;;;;1999.90;999.90;;;13.80;99.90;;;;;;5096927;28;20188;-67
2022/10/30 07:24:26;;;;;;;1999.90;999.90;;;13.80;99.90;;;;;;5097685;28;20261;-67
2022/10/30 07:26:51;;;;;;;1999.90;999.90;;;13.80;99.90;;;;;;5097333;28;20464;-67
2022/10/30 07:29:17;;;;;;;1999.90;999.90;;;13.80;99.90;;;;;;5097257;28;20178;-67
2022/10/30 07:31:46;;;;;;;1999.90;999.90;;;13.80;99.90;;;;;;5096959;28;20238;-67
2022/10/30 07:34:11;;;;;;;1999.90;999.90;;;13.90;99.90;;;;;;5097038;28;20255;-67
2022/10/30 07:36:37;;;;;;;1999.90;999.90;;;14.10;99.90;;;;;;5096597;28;20452;-67
2022/10/30 07:39:02;;;;;;;1999.90;999.90;;;14.10;99.90;;;;;;5096773;28;20173;-67
2022/10/30 07:41:28;;;;;;;1999.90;999.90;;;14.20;99.90;;;;;;5096937;28;20174;-67
2022/10/30 07:43:53;;;;;;;1999.90;999.90;;;14.30;99.90;;;;;;5095936;28;20199;-67
2022/10/30 07:46:19;;;;;;;1999.90;999.90;;;14.30;99.90;;;;;;5095137;28;20176;-67
2022/10/30 07:48:45;;;;;;;1999.90;999.90;;;14.40;99.90;;;;;;5094109;28;20219;-68
2022/10/30 07:51:10;;;;;;;1999.90;999.90;;;14.50;99.90;;;;;;5093182;28;20179;-67
2022/10/30 07:53:36;;;;;;;1999.90;999.90;;;14.50;99.90;;;;;;5091968;28;20274;-67
2022/10/30 07:56:01;;;;;;;1999.90;999.90;;;14.60;99.90;;;;;;5091885;28;20174;-67
2022/10/30 07:58:27;;;;;;;1999.90;999.90;;;14.70;99.90;;;;;;5091665;28;20631;-67
2022/10/30 08:00:53;;;;;;;1999.90;999.90;;;14.80;99.90;;;;;;5091780;28;20176;-67
2022/10/30 08:03:18;;;;;;;1999.90;999.90;;;14.80;99.90;;;;;;5091884;28;20200;-67
2022/10/30 08:05:44;;;;;;;1999.90;999.90;;;14.90;99.90;;;;;;5091738;28;20666;-67
2022/10/30 08:08:09;;;;;;;1999.90;999.90;;;15.10;99.90;;;;;;5091488;28;20167;-67
2022/10/30 08:10:36;;;;;;;1999.90;999.90;;;15.20;99.90;;;;;;5091738;28;20164;-67
2022/10/30 08:13:02;;;;;;;1999.90;999.90;;;15.20;99.90;;;;;;5091584;28;20261;-67
2022/10/30 08:15:28;;;;;;;1999.90;999.90;;;15.20;99.90;;;;;;5091804;28;20909;-67
2022/10/30 08:17:54;;;;;;;1999.90;999.90;;;15.30;99.90;;;;;;5091421;28;20398;-67
2022/10/30 08:20:22;;;;;;;1999.90;999.90;;;15.40;99.90;;;;;;5091702;28;20582;-67
2022/10/30 08:22:52;;;;;;;1999.90;999.90;;;15.50;99.90;;;;;;5091559;28;20424;-67
2022/10/30 08:25:20;;;;;;;1999.90;999.90;;;15.60;99.90;;;;;;5091742;28;20426;-67
2022/10/30 08:27:53;;;;;;;1999.90;999.90;;;15.60;99.90;;;;;;5091319;28;20453;-67
2022/10/30 08:30:19;;;;;;;1999.90;999.90;;;15.70;99.90;;;;;;5091824;28;20943;-67
2022/10/30 08:32:45;;;;;;;1999.90;999.90;;;15.70;99.90;;;;;;5091478;28;20452;-67
2022/10/30 08:35:11;;;;;;;1999.90;999.90;;;15.80;99.90;;;;;;5091664;28;20403;-67
2022/10/30 08:37:37;;;;;;;1999.90;999.90;;;15.90;99.90;;;;;;5091300;28;20190;-67
2022/10/30 08:40:03;;;;;;;1999.90;999.90;;;16.00;99.90;;;;;;5094855;28;20932;-67
2022/10/30 08:42:28;;;;;;;1999.90;999.90;;;16.10;99.90;;;;;;5092204;28;20560;-67
2022/10/30 08:44:54;;;;;;;1999.90;999.90;;;16.20;99.90;;;;;;5096297;28;20416;-67
2022/10/30 08:47:19;;;;;;;1999.90;999.90;;;16.30;99.90;;;;;;5096147;28;20583;-67
2022/10/30 08:49:45;;;;;;;1999.90;999.90;;;16.40;99.90;;;;;;5096171;28;20631;-67
2022/10/30 08:52:10;;;;;;;1999.90;999.90;;;16.50;99.90;;;;;;5096023;28;20201;-67
2022/10/30 08:54:36;;;;;;;1999.90;999.90;;;16.60;99.90;;;;;;5096118;28;20165;-67
2022/10/30 08:57:01;;;;;;;1999.90;999.90;;;16.60;99.90;;;;;;5096023;28;20169;-67
2022/10/30 08:59:27;;;;;;;1999.90;999.90;;;16.80;99.90;;;;;;5096375;28;20223;-67
2022/10/30 09:01:53;;;;;;;1999.90;999.90;;;16.90;99.90;;;;;;5095649;28;20189;-67
2022/10/30 09:04:18;;;;;;;1999.90;999.90;;;17.00;99.90;;;;;;5095500;28;20171;-67
2022/10/30 09:06:44;;;;;;;1999.90;999.90;;;17.10;99.90;;;;;;5095583;28;20250;-67
2022/10/30 09:09:10;;;;;;;1999.90;999.90;;;17.20;99.90;;;;;;5095635;28;20206;-67
2022/10/30 09:11:36;;;;;;;1999.90;999.90;;;17.30;99.90;;;;;;5095307;28;20207;-67
2022/10/30 09:14:02;;;;;;;1999.90;999.90;;;17.40;99.90;;;;;;5095835;28;20412;-67
2022/10/30 09:16:27;;;;;;;1999.90;999.90;;;17.60;99.90;;;;;;5095370;28;20161;-67
2022/10/30 09:18:53;;;;;;;1999.90;999.90;;;17.70;99.90;;;;;;5095209;28;20169;-67
2022/10/30 09:21:18;;;;;;;1999.90;999.90;;;17.80;99.90;;;;;;5095120;28;20178;-67
2022/10/30 09:23:44;;;;;;;1999.90;999.90;;;18.00;99.90;;;;;;5095392;28;20237;-67
2022/10/30 09:26:10;;;;;;;1999.90;999.90;;;18.10;99.90;;;;;;5095255;28;20255;-67
2022/10/30 09:28:36;;;;;;;1999.90;999.90;;;18.30;99.90;;;;;;5095529;28;20186;-67
2022/10/30 09:31:01;;;;;;;1999.90;999.90;;;18.40;99.90;;;;;;5095266;28;20921;-67
2022/10/30 09:33:27;;;;;;;1999.90;999.90;;;18.50;99.90;;;;;;5095110;28;20695;-67
2022/10/30 09:35:52;;;;;;;1999.90;999.90;;;18.60;99.90;;;;;;5095024;28;20412;-67
2022/10/30 09:38:18;;;;;;;1999.90;999.90;;;18.70;99.90;;;;;;5094775;28;20253;-67
2022/10/30 09:40:50;;;;;;;1999.90;999.90;;;18.80;99.90;;;;;;5094974;28;20654;-67
2022/10/30 09:43:49;;;;;;;1999.90;999.90;;;18.90;99.90;;;;;;5094580;28;20211;-67
2022/10/30 09:46:40;;;;;;;1999.90;999.90;;;18.90;99.90;;;;;;5094907;28;20492;-67
2022/10/30 09:49:36;;;;;;;1999.90;999.90;;;19.10;99.90;;;;;;5094757;28;20404;-67
2022/10/30 09:52:17;;;;;;;1999.90;999.90;;;19.10;99.90;;;;;;5094640;28;20883;-67
2022/10/30 09:55:09;;;;;;;1999.90;999.90;;;19.20;99.90;;;;;;5092990;28;20416;-67
2022/10/30 09:58:02;;;;;;;1999.90;999.90;;;19.30;99.90;;;;;;5094077;28;20415;-67
2022/10/30 10:01:00;;;;;;;1999.90;999.90;;;19.40;99.90;;;;;;5072402;28;20468;-66
2022/10/30 10:03:34;;;;;;;1999.90;999.90;;;19.60;99.90;;;;;;5073178;28;20509;-68
2022/10/30 10:06:02;;;;;;;1999.90;999.90;;;19.80;99.90;;;;;;5074833;28;20407;-68
2022/10/30 10:08:52;;;;;;;1999.90;999.90;;;19.90;99.90;;;;;;5075565;28;20415;-67
2022/10/30 10:11:31;;;;;;;1999.90;999.90;;;20.10;99.90;;;;;;5060354;28;20418;-67
2022/10/30 10:14:00;;;;;;;1999.90;999.90;;;20.20;99.90;;;;;;5076027;28;20409;-68
2022/10/30 10:16:29;;;;;;;1999.90;999.90;;;20.30;99.90;;;;;;5075111;28;20769;-68
2022/10/30 10:19:16;;;;;;;1999.90;999.90;;;20.50;99.90;;;;;;5074464;28;20404;-69
2022/10/30 10:21:48;;;;;;;1999.90;999.90;;;20.70;99.90;;;;;;5074407;28;20444;-69
2022/10/30 10:24:21;;;;;;;1999.90;999.90;;;20.70;99.90;;;;;;5057413;28;20443;-68
2022/10/30 10:27:16;;;;;;;1999.90;999.90;;;20.90;99.90;;;;;;5073646;28;20406;-67
2022/10/30 10:29:48;;;;;;;1999.90;999.90;;;21.00;99.90;;;;;;5073555;28;20413;-67
2022/10/30 10:32:37;;;;;;;1999.90;999.90;;;21.20;99.90;;;;;;5073194;28;20523;-68
2022/10/30 10:35:39;;;;;;;1999.90;999.90;;;21.30;99.90;;;;;;5073429;28;20493;-68
2022/10/30 10:38:27;;;;;;;1999.90;999.90;;;21.50;99.90;;;;;;5076139;28;20932;-68
2022/10/30 10:41:14;;;;;;;1999.90;999.90;;;21.70;99.90;;;;;;5077948;28;20469;-68
2022/10/30 10:43:46;;;;;;;1999.90;999.90;;;21.90;99.90;;;;;;5072783;28;20425;-67
2022/10/30 10:46:48;;;;;;;1999.90;999.90;;;22.10;99.90;;;;;;5073132;28;20413;-68
2022/10/30 10:49:42;;;;;;;1999.90;999.90;;;22.20;99.90;;;;;;5073030;28;20401;-66
2022/10/30 10:52:22;;;;;;;1999.90;999.90;;;22.20;99.90;;;;;;5072805;28;20456;-66
2022/10/30 10:54:59;;;;;;;1999.90;999.90;;;22.10;99.90;;;;;;5072142;28;20414;-66
2022/10/30 10:57:31;;;;;;;1999.90;999.90;;;22.10;99.90;;;;;;5072023;28;20417;-66
2022/10/30 11:00:18;;;;;;;1999.90;999.90;;;22.10;99.90;;;;;;5071802;28;20427;-66
2022/10/30 11:02:59;;;;;;;1999.90;999.90;;;22.10;99.90;;;;;;5072175;28;20435;-66
2022/10/30 11:05:33;;;;;;;1999.90;999.90;;;22.20;99.90;;;;;;5071909;28;20398;-66
2022/10/30 11:08:10;;;;;;;1999.90;999.90;;;22.20;99.90;;;;;;5071917;28;20410;-66
2022/10/30 11:10:35;;;;;;;1999.90;999.90;;;22.10;99.90;;;;;;5072718;28;20399;-66
2022/10/30 11:13:01;;;;;;;1999.90;999.90;;;22.10;99.90;;;;;;5072311;28;20470;-66
2022/10/30 11:15:44;;;;;;;1999.90;999.90;;;22.40;99.90;;;;;;5072570;28;20310;-66
2022/10/30 11:18:10;;;;;;;1999.90;999.90;;;22.70;99.90;;;;;;5072582;28;20172;-66
2022/10/30 11:20:40;;;;;;;1999.90;999.90;;;23.20;99.90;;;;;;5072927;28;20405;-66
2022/10/30 11:23:41;;;;;;;1999.90;999.90;;;23.60;99.90;;;;;;5072832;28;20248;-66
2022/10/30 11:26:29;;;;;;;1999.90;999.90;;;24.30;99.90;;;;;;5072696;28;20434;-66
2022/10/30 11:29:02;;;;;;;1999.90;999.90;;;25.00;99.90;;;;;;5072687;28;20413;-66
2022/10/30 11:31:33;;;;;;;1999.90;999.90;;;25.50;99.90;;;;;;5072290;28;20456;-66
2022/10/30 11:34:17;;;;;;;1999.90;999.90;;;26.00;99.90;;;;;;5073043;28;20488;-66
2022/10/30 11:36:44;;;;;;;1999.90;999.90;;;26.40;99.90;;;;;;5072427;28;20376;-66
2022/10/30 11:39:16;;;;;;;1999.90;999.90;;;26.90;99.90;;;;;;5072401;28;20387;-66
2022/10/30 11:41:44;;;;;;;1999.90;999.90;;;27.20;99.90;;;;;;5072482;28;21387;-67
2022/10/30 11:44:10;;;;;;;1999.90;999.90;;;27.40;99.90;;;;;;5074427;28;20399;-67
2022/10/30 11:46:37;;;;;;;1999.90;999.90;;;27.70;99.90;;;;;;5074290;28;20476;-68
2022/10/30 11:49:02;;;;;;;1999.90;999.90;;;28.10;98.90;;;;;;5074213;28;20383;-67
2022/10/30 11:51:37;;;;;;;1999.90;999.90;;;28.50;98.00;;;;;;5074071;28;20822;-67
2022/10/30 11:54:05;;;;;;;1999.90;999.90;;;28.70;93.40;;;;;;5073803;28;20171;-67
2022/10/30 11:56:32;;;;;;;1999.90;999.90;;;28.80;91.60;;;;;;5073926;28;20815;-67
2022/10/30 11:59:01;;;;;;;1999.90;999.90;;;28.70;88.40;;;;;;5074193;28;20930;-67
2022/10/30 12:01:35;;;;;;;1999.90;999.90;;;28.60;85.20;;;;;;5074191;28;20375;-67
2022/10/30 12:04:14;;;;;;;1999.90;999.90;;;28.40;87.60;;;;;;5074435;28;20392;-67
2022/10/30 12:06:40;;;;;;;1999.90;999.90;;;28.30;83.90;;;;;;5073479;28;20407;-67
2022/10/30 12:09:22;;;;;;;1999.90;999.90;;;28.00;84.10;;;;;;5074301;28;20782;-67